Las Vegas, Nevada (DRI) Weather observations

Data are for observation ending at time listed.
 Day   Time    Ave.   Ave.  Ave.  Vector   Max.   Stn.    Total    Solar   Ave.  
  of    of     Air    Rel.  Wind   Wind    Wind   Baro.  Precip.   Rad.    Soil  
Year   Day     Temp.  Hum.  Speed  Dir.    Gust   Pres.                    Temp. 
2026   (PST)    F      %     mph   deg.    mph     mb.     in.     W/m2     F   
------------------------------------------------------------------------------
 125    2:20   59.9    45    6.2   177     11.8   938.1    0.00       0    73.8
 125    2:30   60.0    45    5.5   182     11.1   938.1    0.00       0    73.6
 125    2:40   59.7    46    6.5   174     14.7   938.1    0.00       0    73.5
 125    2:50   59.4    46    6.5   180     12.6   938.2    0.00       0    73.4
 125    3:00   59.5    46    6.4   173     11.5   938.2    0.00       0    73.2
 125    3:10   59.5    46    6.5   175     13.2   938.3    0.00       0    73.0
 125    3:20   59.4    47    6.2   178     11.6   938.3    0.00       0    72.9
 125    3:30   59.2    47    5.6   174     11.3   938.4    0.00       0    72.8
 125    3:40   58.8    48    5.3   177     10.8   938.5    0.00       0    72.7
 125    3:50   58.5    48    5.3   168      9.2   938.5    0.00       0    72.6
 125    4:00   58.4    48    5.6   176     10.9   938.5    0.00       0    72.5
 125    4:10   58.2    49    5.5   177     10.2   938.5    0.00       0    72.4
 125    4:20   57.9    50    4.6   175      8.6   938.5    0.00       0    72.2
 125    4:30   57.6    50    4.8   177      9.5   938.6    0.00       0    72.1
 125    4:40   57.4    51    4.4   170      7.5   938.6    0.00       2    72.1
 125    4:50   57.5    51    4.6   172      8.8   938.6    0.00       4    72.0
 125    5:00   57.4    51    4.0   176      8.6   938.6    0.00      10    71.8
 125    5:10   57.5    51    5.2   172      8.7   938.7    0.00      16    71.7
 125    5:20   57.5    51    4.9   173      8.6   938.8    0.00      19    71.6
 125    5:30   57.6    51    5.2   172     10.2   938.8    0.00      20    71.5
 125    5:40   57.7    51    4.5   175      9.1   938.9    0.00      21    71.4
 125    5:50   57.7    51    5.3   176      9.8   939.1    0.00      23    71.3
 125    6:00   58.2    50    5.0   176      9.7   939.2    0.00      25    71.2
 125    6:10   58.8    50    5.1   174      8.0   939.2    0.00      28    71.1
 125    6:20   58.9    50    5.2   169     10.4   939.3    0.00      33    71.0
 125    6:30   59.1    49    6.3   173     11.4   939.4    0.00      42    71.0
 125    6:40   59.5    49    4.7   174      8.9   939.4    0.00      55    70.9
 125    6:50   59.6    48    4.3   172      7.7   939.6    0.00      71    70.9
 125    7:00   59.8    48    3.7   169      7.1   939.6    0.00      84    71.0
 125    7:10   60.3    48    3.7   175      7.7   939.6    0.00      93    70.9
 125    7:20   60.7    47    3.6   171      8.5   939.6    0.00      98    70.9
 125    7:30   61.1    46    3.1   178     10.4   939.7    0.00     105    70.9
 125    7:40   61.5    45    4.4   176      8.5   939.7    0.00     107    70.9
 125    7:50   62.0    44    4.2   181      9.3   939.8    0.00     110    70.9
 125    8:00   62.1    42    5.2   176      9.7   939.8    0.00      95    70.9
 125    8:10   63.1    40    4.2   199      9.3   939.7    0.00     113    70.9
 125    8:20   63.7    40    3.8   174      8.6   939.7    0.00     116    70.9
 125    8:30   64.5    38    4.3   180     10.4   939.6    0.00     135    70.9
 125    8:40   64.6    36    4.3   201      8.6   939.5    0.00     191    71.0
 125    8:50   65.1    34    4.3   190      8.8   939.5    0.00     298    71.0
 125    9:00   66.0    33    4.4   175      8.3   939.4    0.00     552    71.0
 125    9:10   66.4    33    4.3   178      9.0   939.4    0.00     657    71.0
 125    9:20   67.7    32    2.1   186      7.7   939.4    0.00     678    71.2
 125    9:30   68.1    32    3.7   184      9.2   939.4    0.00     723    71.3
 125    9:40   68.3    31    3.6   169      9.6   939.4    0.00     660    71.5
 125    9:50   68.5    30    3.9   174      9.6   939.4    0.00     791    71.9
 125   10:00   68.8    30    5.4   189     10.8   939.4    0.00     869    72.2
 125   10:10   69.7    29    4.8   180     10.8   939.3    0.00     864    72.7
 125   10:20   69.9    29    3.5   205      8.1   939.3    0.00     892    73.2
 125   10:30   70.6    28    4.2   172     10.8   939.3    0.00     825    73.9
 125   10:40   70.4    28    4.8   181     12.1   939.3    0.00     890    74.7
 125   10:50   70.4    28    3.6   172      9.6   939.2    0.00     849    75.4
 125   11:00   70.9    27    2.9   202      7.7   939.2    0.00     750    76.2
 125   11:10   71.4    27    4.0   171     10.0   939.2    0.00     952    76.9
 125   11:20   71.8    26    4.3   187     11.6   939.1    0.00     935    77.6
 125   11:30   71.8    26    3.5   206      7.5   939.1    0.00     948    78.3
 125   11:40   73.1    25    2.5   204      5.6   939.0    0.00     908    79.0
 125   11:50   73.8    24    3.4   202      6.8   938.9    0.00     904    79.7
 125   12:00   73.5    24    2.7   222      6.9   938.8    0.00     960    80.4
 125   12:10   74.3    23    2.9   199      6.1   938.6    0.00     956    81.1
 125   12:20   74.8    23    3.1   230      6.7   938.5    0.00     947    81.8
 125   12:30   74.9    23    3.0   170     11.5   938.4    0.00     952    82.5
 125   12:40   74.5    23    3.3   193      9.4   938.4    0.00     936    83.2
 125   12:50   75.9    21    2.4   193      5.8   938.4    0.00     920    83.8
 125   13:00   76.0    21    3.7   187      6.6   938.4    0.00     917    84.4
 125   13:10   75.7    21    2.1   207      6.8   938.4    0.00     902    85.0
 125   13:20   75.8    20    2.6   219      6.9   938.2    0.00     874    85.5
 125   13:30   76.5    20    1.8   250      6.4   938.1    0.00     851    86.1
 125   13:40   77.2    19    2.0   203      5.2   938.0    0.00     834    86.6
 125   13:50   77.3    19    1.8   173      7.1   937.8    0.00     816    87.2
 125   14:00   77.5    18    3.8   167      9.3   937.8    0.00     797    87.7
 125   14:10   75.7    19    3.7   183      8.6   937.6    0.00     775    88.1
 125   14:20   75.1    19    2.5    59      5.6   937.5    0.00     750    88.5
 125   14:30   77.3    18    2.7   187      5.4   937.4    0.00     728    88.8
 125   14:40   77.0    18    3.2   196     10.0   937.4    0.00     703    89.1
 125   14:50   76.9    18    2.2   102      7.5   937.3    0.00     674    89.3
 125   15:00   76.2    18    2.2    32      5.2   937.2    0.00     646    89.5
 125   15:10   77.1    18    1.4    36      5.0   937.0    0.00     617    89.6
 125   15:20   77.8    18    1.9   186      6.6   936.9    0.00     589    89.7
 125   15:30   78.4    18    1.6   293      3.6   936.8    0.00     559    89.7
 125   15:40   78.1    18    1.8    38      4.4   936.7    0.00     403    89.7
 125   15:50   77.8    18    1.9   330      4.4   936.7    0.00     493    89.6
 125   16:00   78.9    18    2.9   184      7.3   936.7    0.00     464    89.4
 125   16:10   79.0    18    2.6   179      7.5   936.7    0.00     436    89.3
 125   16:20   78.3    19    3.6   171      8.5   936.8    0.00     398    89.0
 125   16:30   77.7    19    3.7   185      9.3   936.8    0.00     363    88.7
 125   16:40   77.7    19    2.6   199      7.9   936.8    0.00     332    88.5
 125   16:50   77.3    19    3.7   190      9.9   936.9    0.00     298    88.2
 125   17:00   77.2    20    4.6   172      9.9   936.9    0.00     263    87.9
 125   17:10   77.1    20    2.4   179      7.5   937.0    0.00     230    87.6
 125   17:20   77.1    21    4.2   175      9.6   936.9    0.00     192    87.3
 125   17:30   76.1    22    4.1   177      9.1   937.0    0.00     159    87.0
 125   17:40   75.7    22    3.1   168      9.1   937.0    0.00      99    86.6
 125   17:50   74.9    23    4.4   175      9.5   937.2    0.00      87    86.3
 125   18:00   74.2    23    5.8   177      9.8   937.1    0.00      35    85.9
 125   18:10   73.9    24    5.4   173     10.9   937.2    0.00      24    85.4
 125   18:20   73.7    24    5.9   174     10.4   937.3    0.00      17    85.0
 125   18:30   73.5    24    5.0   181      8.4   937.5    0.00      10    84.5
 125   18:40   73.3    24    6.2   176     13.8   937.5    0.00       4    84.1
 125   18:50   73.1    25    6.2   182     16.7   937.7    0.00       1    83.7
 125   19:00   73.0    25    6.0   174     12.5   937.9    0.00       0    83.4
 125   19:10   72.8    25    6.0   176     13.1   938.0    0.00       0    83.0
 125   19:20   72.9    26    3.7   196      8.3   938.3    0.00       0    82.7
 125   19:30   72.5    27    4.3   191      9.0   938.4    0.00       0    82.4
 125   19:40   72.1    27    5.6   180     10.4   938.5    0.00       0    82.1
 125   19:50   71.9    27    4.8   192     11.1   938.6    0.00       0    81.8
 125   20:00   71.7    27    4.1   192      8.6   938.8    0.00       0    81.6
 125   20:10   71.5    27    4.1   187      8.9   938.9    0.00       0    81.4
 125   20:20   71.3    27    4.3   190      8.2   939.0    0.00       0    81.1
 125   20:30   71.2    28    4.7   184     12.3   939.2    0.00       0    80.8
 125   20:40   71.0    27    5.5   183     11.8   939.2    0.00       0    80.6
 125   20:50   70.9    28    4.0   184      7.8   939.4    0.00       0    80.3
 125   21:00   70.7    27    4.1   185      6.4   939.4    0.00       0    80.1
 125   21:10   70.5    27    4.2   187      8.8   939.5    0.00       0    79.9
 125   21:20   70.4    27    3.4   192      6.1   939.6    0.00       0    79.8
 125   21:30   70.3    27    3.3   186      6.6   939.9    0.00       0    79.6
 125   21:40   70.2    27    3.0   187      5.8   939.8    0.00       0    79.4
 125   21:50   70.2    27    3.6   185      6.1   939.9    0.00       0    79.2
 125   22:00   70.1    27    3.2   184      6.1   940.0    0.00       0    79.1
 125   22:10   70.0    28    3.1   189      6.1   940.0    0.00       0    78.9
 125   22:20   70.2    28    2.7   203      6.1   940.2    0.00       0    78.7
 125   22:30   70.2    28    2.6   209      6.6   940.3    0.00       0    78.6
 125   22:40   70.1    28    2.9   200      6.9   940.3    0.00       0    78.4
 125   22:50   70.0    28    2.0   204      5.8   940.4    0.00       0    78.3
 125   23:00   69.9    29    1.8   202      4.5   940.4    0.00       0    78.2
 125   23:10   69.4    30    1.8   172      3.0   940.5    0.00       0    78.0
 125   23:20   69.0    30    2.3   164      5.2   940.6    0.00       0    77.9
 125   23:30   68.5    29    3.6   171      6.4   940.6    0.00       0    77.8
 125   23:40   68.3    29    3.7   176      6.7   940.7    0.00       0    77.6
 125   23:50   67.9    28    4.2   174      7.8   940.7    0.00       0    77.5
 126    0:00   67.5    28    3.6   177      7.6   940.7    0.00       0    77.3
 126    0:10   67.1    28    3.6   180      7.5   940.7    0.00       0    77.2
 126    0:20   67.1    30    3.5   184      6.8   940.7    0.00       0    77.0
 126    0:30   66.9    31    5.2   182      8.5   940.7    0.00       0    76.9
 126    0:40   66.7    33    5.0   185     10.4   940.6    0.00       0    76.7
 126    0:50   66.3    34    5.0   177      9.1   940.7    0.00       0    76.5
 126    1:00   66.2    34    4.7   181      9.5   940.7    0.00       0    76.3
 126    1:10   66.0    34    4.5   183      8.4   940.8    0.00       0    76.2
 126    1:20   65.9    34    4.7   188      9.2   940.8    0.00       0    76.1
 126    1:30   65.8    34    4.3   190      7.5   940.8    0.00       0    75.9
 126    1:40   65.6    35    3.7   184      6.8   941.0    0.00       0    75.8
 126    1:50   65.4    35    3.7   186      7.9   941.0    0.00       0    75.7
 126    2:00   65.4    35    4.8   183      8.6   941.0    0.00       0    75.6
 126    2:10   65.2    36    4.5   175     11.2   941.2    0.00       0    75.5

Return to Las Vegas, Nevada graphs page.


Western Regional Climate Center,wrcc@dri.edu